createdAt,value
2023-01-30T00:00:05.494Z,1.3
2023-01-30T00:02:03.228Z,1.2
2023-01-30T00:04:02.612Z,1.2
2023-01-30T00:06:02.741Z,1.1
2023-01-30T00:08:02.839Z,1.1
2023-01-30T00:10:03.323Z,1.1
2023-01-30T00:12:02.787Z,1.0
2023-01-30T00:14:03.220Z,0.9
2023-01-30T00:16:03.850Z,1.0
2023-01-30T00:18:03.525Z,0.9
2023-01-30T00:20:03.032Z,0.8
2023-01-30T00:22:02.566Z,0.8
2023-01-30T00:24:03.543Z,0.8
2023-01-30T00:26:04.172Z,0.8
2023-01-30T00:28:03.314Z,0.8
2023-01-30T00:30:05.536Z,0.7
2023-01-30T00:32:03.530Z,0.7
2023-01-30T00:34:02.560Z,0.7
2023-01-30T00:36:02.897Z,0.7
2023-01-30T00:38:03.281Z,0.6
2023-01-30T00:40:02.765Z,0.6
2023-01-30T00:42:12.061Z,0.6
2023-01-30T00:44:12.803Z,0.5
2023-01-30T00:46:14.106Z,0.5
2023-01-30T00:48:03.550Z,0.5
2023-01-30T00:50:02.620Z,0.4
2023-01-30T00:52:03.907Z,0.4
2023-01-30T00:54:02.591Z,0.4
2023-01-30T00:56:04.258Z,0.4
2023-01-30T00:58:04.247Z,0.3
2023-01-30T01:00:04.939Z,0.3
2023-01-30T01:02:02.694Z,0.2
2023-01-30T01:04:03.260Z,0.2
2023-01-30T01:06:03.162Z,0.2
2023-01-30T01:08:03.646Z,0.1
2023-01-30T01:10:02.800Z,0.1
2023-01-30T01:12:03.229Z,0.1
2023-01-30T01:14:05.249Z,0.0
2023-01-30T01:16:02.581Z,-0.1
2023-01-30T01:18:03.433Z,-0.1
2023-01-30T01:20:03.440Z,-0.1
2023-01-30T01:22:02.549Z,-0.1
2023-01-30T01:24:03.428Z,-0.2
2023-01-30T01:26:03.574Z,-0.2
2023-01-30T01:28:03.144Z,-0.2
2023-01-30T01:30:03.513Z,-0.2
2023-01-30T01:32:02.838Z,-0.2
2023-01-30T01:34:02.627Z,-0.3
2023-01-30T01:36:04.665Z,-0.3
2023-01-30T01:38:02.595Z,-0.3
2023-01-30T01:40:12.753Z,-0.3
2023-01-30T01:42:02.783Z,-0.4
2023-01-30T01:44:05.407Z,-0.4
2023-01-30T01:46:10.001Z,-0.4
2023-01-30T01:48:06.486Z,-0.4
2023-01-30T01:50:03.727Z,-0.5
2023-01-30T01:52:07.712Z,-0.5
2023-01-30T01:54:06.581Z,-0.6
2023-01-30T01:56:05.878Z,-0.6
2023-01-30T01:58:07.924Z,-0.6
2023-01-30T02:00:11.053Z,-0.6
2023-01-30T02:02:09.471Z,-0.6
2023-01-30T02:04:08.664Z,-0.7
2023-01-30T02:06:04.472Z,-0.7
2023-01-30T02:08:08.034Z,-0.7
2023-01-30T02:10:02.811Z,-0.7
2023-01-30T02:12:04.551Z,-0.8
2023-01-30T02:14:03.398Z,-0.7
2023-01-30T02:16:05.199Z,-0.7
2023-01-30T02:18:03.848Z,-0.7
2023-01-30T02:20:12.669Z,-0.8
2023-01-30T02:22:21.608Z,-0.7
2023-01-30T02:24:21.836Z,-0.8
2023-01-30T02:26:21.988Z,-0.8
2023-01-30T02:28:21.606Z,-0.8
2023-01-30T02:30:21.827Z,-0.8
2023-01-30T02:32:10.308Z,-0.8
2023-01-30T02:34:19.760Z,-0.8
2023-01-30T02:36:13.125Z,-0.8
2023-01-30T02:38:16.849Z,-0.8
2023-01-30T02:40:18.028Z,-0.8
2023-01-30T02:42:08.862Z,-0.8
2023-01-30T02:44:07.034Z,-0.8
2023-01-30T02:46:08.934Z,-0.7
2023-01-30T02:48:06.281Z,-0.7
2023-01-30T02:50:10.959Z,-0.7
2023-01-30T02:52:06.281Z,-0.7
2023-01-30T02:54:05.378Z,-0.8
2023-01-30T02:56:04.001Z,-0.8
2023-01-30T02:58:04.693Z,-0.8
2023-01-30T03:00:06.403Z,-0.8
2023-01-30T03:02:19.197Z,-0.8
2023-01-30T03:04:18.020Z,-0.8
2023-01-30T03:06:16.133Z,-0.8
2023-01-30T03:08:18.129Z,-0.9
2023-01-30T03:10:09.775Z,-0.9
2023-01-30T03:12:07.774Z,-0.9
2023-01-30T03:14:11.583Z,-0.9
2023-01-30T03:16:10.126Z,-0.9
2023-01-30T03:18:03.483Z,-1.1
2023-01-30T03:20:03.209Z,-1.1
2023-01-30T03:22:02.980Z,-1.1
2023-01-30T03:24:02.542Z,-1.1
2023-01-30T03:26:06.172Z,-1.1
2023-01-30T03:28:04.959Z,-1.1
2023-01-30T03:30:02.659Z,-1.1
2023-01-30T03:32:03.637Z,-1.2
2023-01-30T03:34:02.871Z,-1.2
2023-01-30T03:36:02.827Z,-1.2
2023-01-30T03:38:03.020Z,-1.3
2023-01-30T03:40:04.097Z,-1.3
2023-01-30T03:42:03.203Z,-1.3
2023-01-30T03:44:02.860Z,-1.3
2023-01-30T03:46:02.816Z,-1.3
2023-01-30T03:48:03.258Z,-1.3
2023-01-30T03:50:03.628Z,-1.3
2023-01-30T03:52:02.529Z,-1.2
2023-01-30T03:54:03.068Z,-1.3
2023-01-30T03:56:02.852Z,-1.3
2023-01-30T03:58:02.849Z,-1.2
2023-01-30T04:00:04.224Z,-1.3
2023-01-30T04:02:03.295Z,-1.3
2023-01-30T04:04:03.330Z,-1.3
2023-01-30T04:06:02.844Z,-1.3
2023-01-30T04:08:03.109Z,-1.3
2023-01-30T04:10:02.774Z,-1.3
2023-01-30T04:12:02.543Z,-1.3
2023-01-30T04:14:02.590Z,-1.3
2023-01-30T04:16:14.400Z,-1.3
2023-01-30T04:18:02.568Z,-1.4
2023-01-30T04:20:03.803Z,-1.4
2023-01-30T04:22:03.344Z,-1.4
2023-01-30T04:24:03.171Z,-1.4
2023-01-30T04:26:03.502Z,-1.4
2023-01-30T04:28:03.087Z,-1.4
2023-01-30T04:30:03.326Z,-1.4
2023-01-30T04:32:02.735Z,-1.4
2023-01-30T04:34:03.440Z,-1.5
2023-01-30T04:36:04.789Z,-1.5
2023-01-30T04:38:02.639Z,-1.5
2023-01-30T04:40:03.306Z,-1.5
2023-01-30T04:42:02.762Z,-1.5
2023-01-30T04:44:03.206Z,-1.6
2023-01-30T04:46:03.025Z,-1.6
2023-01-30T04:48:02.873Z,-1.6
2023-01-30T04:50:02.989Z,-1.6
2023-01-30T04:52:03.324Z,-1.6
2023-01-30T04:54:06.112Z,-1.6
2023-01-30T04:56:02.775Z,-1.6
2023-01-30T04:58:04.204Z,-1.7
2023-01-30T05:00:03.671Z,-1.7
2023-01-30T05:02:02.793Z,-1.7
2023-01-30T05:04:04.386Z,-1.7
2023-01-30T05:06:02.595Z,-1.8
2023-01-30T05:08:02.911Z,-1.8
2023-01-30T05:10:04.034Z,-1.8
2023-01-30T05:12:02.593Z,-1.8
2023-01-30T05:14:02.950Z,-1.8
2023-01-30T05:16:03.285Z,-1.8
2023-01-30T05:18:02.565Z,-1.9
2023-01-30T05:20:02.898Z,-1.9
2023-01-30T05:22:03.152Z,-1.9
2023-01-30T05:24:02.558Z,-1.9
2023-01-30T05:26:04.221Z,-1.9
2023-01-30T05:28:03.133Z,-1.9
2023-01-30T05:30:02.607Z,-2.0
2023-01-30T05:32:04.698Z,-2.0
2023-01-30T05:34:02.861Z,-2.0
2023-01-30T05:36:02.862Z,-2.1
2023-01-30T05:38:03.401Z,-2.1
2023-01-30T05:40:03.536Z,-2.1
2023-01-30T05:42:02.701Z,-2.1
2023-01-30T05:44:02.681Z,-2.1
2023-01-30T05:46:05.691Z,-2.1
2023-01-30T05:48:02.707Z,-2.1
2023-01-30T05:50:03.517Z,-2.1
2023-01-30T05:52:02.911Z,-2.1
2023-01-30T05:54:03.384Z,-2.2
2023-01-30T05:56:05.332Z,-2.2
2023-01-30T05:58:02.793Z,-2.2
2023-01-30T06:00:03.472Z,-2.2
2023-01-30T06:02:03.546Z,-2.2
2023-01-30T06:04:03.196Z,-2.2
2023-01-30T06:06:03.815Z,-2.3
2023-01-30T06:08:02.690Z,-2.3
2023-01-30T06:10:02.795Z,-2.3
2023-01-30T06:12:02.644Z,-2.3
2023-01-30T06:14:02.883Z,-2.3
2023-01-30T06:16:03.613Z,-2.3
2023-01-30T06:18:03.319Z,-2.3
2023-01-30T06:20:02.624Z,-2.3
2023-01-30T06:22:02.959Z,-2.3
2023-01-30T06:24:03.136Z,-2.3
2023-01-30T06:26:04.961Z,-2.3
2023-01-30T06:28:03.390Z,-2.3
2023-01-30T06:30:03.593Z,-2.3
2023-01-30T06:32:02.707Z,-2.3
2023-01-30T06:34:03.204Z,-2.4
2023-01-30T06:36:02.655Z,-2.3
2023-01-30T06:38:03.364Z,-2.3
2023-01-30T06:40:03.411Z,-2.4
2023-01-30T06:42:02.586Z,-2.4
2023-01-30T06:44:02.612Z,-2.4
2023-01-30T06:46:02.865Z,-2.4
2023-01-30T06:48:04.093Z,-2.4
2023-01-30T06:50:03.219Z,-2.4
2023-01-30T06:52:02.872Z,-2.4
2023-01-30T06:54:02.605Z,-2.4
2023-01-30T06:56:02.695Z,-2.4
2023-01-30T06:58:04.861Z,-2.4
2023-01-30T07:00:03.185Z,-2.4
2023-01-30T07:02:03.233Z,-2.4
2023-01-30T07:04:02.766Z,-2.4
2023-01-30T07:06:03.491Z,-2.4
2023-01-30T07:08:02.588Z,-2.4
2023-01-30T07:10:08.311Z,-2.4
2023-01-30T07:12:02.547Z,-2.4
2023-01-30T07:14:02.590Z,-2.4
2023-01-30T07:16:03.449Z,-2.5
2023-01-30T07:18:02.708Z,-2.5
2023-01-30T07:20:02.680Z,-2.5
2023-01-30T07:22:03.473Z,-2.5
2023-01-30T07:24:02.553Z,-2.5
2023-01-30T07:26:03.968Z,-2.5
2023-01-30T07:28:03.685Z,-2.6
2023-01-30T07:30:02.686Z,-2.6
2023-01-30T07:32:04.320Z,-2.6
2023-01-30T07:34:02.562Z,-2.6
2023-01-30T07:36:03.261Z,-2.6
2023-01-30T07:38:03.281Z,-2.6
2023-01-30T07:40:02.825Z,-2.6
2023-01-30T07:42:04.014Z,-2.6
2023-01-30T07:44:03.597Z,-2.6
2023-01-30T07:46:03.607Z,-2.6
2023-01-30T07:48:02.784Z,-2.6
2023-01-30T07:50:02.879Z,-2.7
2023-01-30T07:52:03.302Z,-2.7
2023-01-30T07:54:03.616Z,-2.7
2023-01-30T07:56:07.140Z,-2.7
2023-01-30T07:58:03.473Z,-2.7
2023-01-30T08:00:04.229Z,-2.7
2023-01-30T08:02:02.635Z,-2.7
2023-01-30T08:04:02.800Z,-2.7
2023-01-30T08:06:03.195Z,-2.7
2023-01-30T08:08:03.429Z,-2.7
2023-01-30T08:10:03.557Z,-2.8
2023-01-30T08:12:03.219Z,-2.8
2023-01-30T08:14:02.692Z,-2.8
2023-01-30T08:16:04.711Z,-2.8
2023-01-30T08:18:02.624Z,-2.8
2023-01-30T08:20:04.709Z,-2.8
2023-01-30T08:22:03.362Z,-2.8
2023-01-30T08:24:02.731Z,-2.8
2023-01-30T08:26:04.122Z,-2.8
2023-01-30T08:28:04.282Z,-2.8
2023-01-30T08:30:02.590Z,-2.8
2023-01-30T08:32:03.658Z,-2.8
2023-01-30T08:34:02.540Z,-2.8
2023-01-30T08:36:02.620Z,-2.8
2023-01-30T08:38:03.202Z,-2.9
2023-01-30T08:40:02.886Z,-2.9
2023-01-30T08:42:02.561Z,-2.9
2023-01-30T08:44:02.759Z,-2.9
2023-01-30T08:46:02.827Z,-2.9
2023-01-30T08:48:05.418Z,-2.9
2023-01-30T08:50:02.658Z,-2.9
2023-01-30T08:52:03.578Z,-3.0
2023-01-30T08:54:03.500Z,-2.9
2023-01-30T08:56:02.723Z,-2.9
2023-01-30T08:58:02.564Z,-2.9
2023-01-30T09:00:03.568Z,-2.9
2023-01-30T09:02:03.197Z,-3.0
2023-01-30T09:04:03.275Z,-3.0
2023-01-30T09:06:03.085Z,-3.0
2023-01-30T09:08:03.167Z,-3.0
2023-01-30T09:10:02.660Z,-3.0
2023-01-30T09:12:03.172Z,-3.1
2023-01-30T09:14:02.564Z,-3.1
2023-01-30T09:16:03.945Z,-3.1
2023-01-30T09:18:02.835Z,-3.1
2023-01-30T09:20:02.597Z,-3.2
2023-01-30T09:22:02.666Z,-3.2
2023-01-30T09:24:02.584Z,-3.2
2023-01-30T09:26:03.365Z,-3.2
2023-01-30T09:28:02.901Z,-3.2
2023-01-30T09:30:03.516Z,-3.2
2023-01-30T09:32:02.707Z,-3.3
2023-01-30T09:34:02.570Z,-3.2
2023-01-30T09:36:02.621Z,-3.2
2023-01-30T09:38:05.285Z,-3.3
2023-01-30T09:40:04.082Z,-3.3
2023-01-30T09:42:21.583Z,-3.3
2023-01-30T09:44:21.630Z,-3.3
2023-01-30T09:46:13.868Z,-3.3
2023-01-30T09:48:13.380Z,-3.3
2023-01-30T09:50:21.783Z,-3.2
2023-01-30T09:52:17.086Z,-3.3
2023-01-30T09:54:15.040Z,-3.3
2023-01-30T09:56:02.792Z,-3.3
2023-01-30T09:58:03.323Z,-3.3
2023-01-30T10:00:08.236Z,-3.3
2023-01-30T10:02:21.612Z,-3.3
2023-01-30T10:04:11.253Z,-3.3
2023-01-30T10:06:07.238Z,-3.4
2023-01-30T10:08:20.913Z,-3.4
2023-01-30T10:10:14.071Z,-3.4
2023-01-30T10:12:14.960Z,-3.4
2023-01-30T10:14:17.239Z,-3.4
2023-01-30T10:16:09.274Z,-3.5
2023-01-30T10:18:21.596Z,-3.5
2023-01-30T10:20:21.817Z,-3.6
2023-01-30T10:22:11.060Z,-3.6
2023-01-30T10:24:19.308Z,-3.6
2023-01-30T10:26:11.966Z,-3.6
2023-01-30T10:28:11.467Z,-3.7
2023-01-30T10:30:06.640Z,-3.7
2023-01-30T10:32:10.608Z,-3.7
2023-01-30T10:34:06.649Z,-3.7
2023-01-30T10:36:08.148Z,-3.7
2023-01-30T10:38:13.835Z,-3.7
2023-01-30T10:40:14.484Z,-3.7
2023-01-30T10:42:11.811Z,-3.7
2023-01-30T10:44:08.989Z,-3.7
2023-01-30T10:46:11.111Z,-3.8
2023-01-30T10:48:24.681Z,-3.7
2023-01-30T10:50:15.789Z,-3.8
2023-01-30T10:52:17.612Z,-3.8
2023-01-30T10:54:12.878Z,-3.8
2023-01-30T10:56:10.926Z,-3.8
2023-01-30T10:58:07.850Z,-3.8
2023-01-30T11:00:09.947Z,-3.8
2023-01-30T11:02:15.862Z,-3.8
2023-01-30T11:04:07.397Z,-3.8
2023-01-30T11:06:08.537Z,-3.8
2023-01-30T11:08:02.788Z,-3.8
2023-01-30T11:10:02.610Z,-3.8
2023-01-30T11:12:02.777Z,-3.8
2023-01-30T11:14:05.351Z,-3.9
2023-01-30T11:16:08.123Z,-3.9
2023-01-30T11:18:44.884Z,-3.9
2023-01-30T11:20:08.570Z,-3.9
2023-01-30T11:22:05.229Z,-3.9
2023-01-30T11:24:11.917Z,-3.9
2023-01-30T11:26:11.200Z,-3.9
2023-01-30T11:28:05.896Z,-4.0
2023-01-30T11:30:06.731Z,-4.0
2023-01-30T11:32:05.616Z,-4.0
2023-01-30T11:34:06.079Z,-4.1
2023-01-30T11:36:05.520Z,-4.1
2023-01-30T11:38:20.025Z,-4.0
2023-01-30T11:40:18.871Z,-4.1
2023-01-30T11:42:04.404Z,-4.1
2023-01-30T11:44:05.351Z,-4.1
2023-01-30T11:46:03.078Z,-4.1
2023-01-30T11:48:05.897Z,-4.1
2023-01-30T11:50:19.960Z,-4.1
2023-01-30T11:52:04.576Z,-4.1
2023-01-30T11:54:06.158Z,-4.1
2023-01-30T11:56:08.808Z,-4.2
2023-01-30T11:58:07.858Z,-4.1
2023-01-30T12:00:03.249Z,-4.1
2023-01-30T12:02:05.851Z,-4.1
2023-01-30T12:04:07.125Z,-4.2
2023-01-30T12:06:02.845Z,-4.1
2023-01-30T12:08:14.129Z,-4.1
2023-01-30T12:10:21.601Z,-4.2
2023-01-30T12:12:03.136Z,-4.2
2023-01-30T12:14:19.280Z,-4.2
2023-01-30T12:16:15.038Z,-4.3
2023-01-30T12:18:10.962Z,-4.3
2023-01-30T12:20:10.475Z,-4.4
2023-01-30T12:22:17.450Z,-4.4
2023-01-30T12:24:13.781Z,-4.4
2023-01-30T12:26:11.427Z,-4.4
2023-01-30T12:28:11.012Z,-4.5
2023-01-30T12:30:06.667Z,-4.5
2023-01-30T12:34:02.933Z,-4.5
2023-01-30T12:36:13.800Z,-4.4
2023-01-30T12:38:13.490Z,-4.4
2023-01-30T12:40:13.772Z,-4.4
2023-01-30T12:42:22.759Z,-4.4
2023-01-30T12:44:21.668Z,-4.4
2023-01-30T12:46:16.121Z,-4.4
2023-01-30T12:48:21.568Z,-4.4
2023-01-30T12:50:20.862Z,-4.4
2023-01-30T12:52:17.040Z,-4.4
2023-01-30T12:54:11.793Z,-4.4
2023-01-30T12:56:21.702Z,-4.4
2023-01-30T12:58:11.748Z,-4.4
2023-01-30T13:00:18.095Z,-4.4
2023-01-30T13:02:21.744Z,-4.4
2023-01-30T13:04:12.880Z,-4.4
2023-01-30T13:06:10.798Z,-4.4
2023-01-30T13:08:15.100Z,-4.4
2023-01-30T13:10:13.484Z,-4.4
2023-01-30T13:12:12.751Z,-4.4
2023-01-30T13:14:15.151Z,-4.4
2023-01-30T13:16:10.194Z,-4.4
2023-01-30T13:18:10.124Z,-4.4
2023-01-30T13:20:15.744Z,-4.4
2023-01-30T13:22:08.685Z,-4.4
2023-01-30T13:24:18.510Z,-4.4
2023-01-30T13:26:05.728Z,-4.4
2023-01-30T13:28:11.482Z,-4.4
2023-01-30T13:30:05.967Z,-4.4
2023-01-30T13:32:06.978Z,-4.4
2023-01-30T13:34:06.969Z,-4.4
2023-01-30T13:36:08.257Z,-4.4
2023-01-30T13:38:05.101Z,-4.4
2023-01-30T13:40:16.255Z,-4.4
2023-01-30T13:42:08.610Z,-4.4
2023-01-30T13:44:15.604Z,-4.4
2023-01-30T13:46:08.727Z,-4.4
2023-01-30T13:48:17.642Z,-4.4
2023-01-30T13:50:21.612Z,-4.4
2023-01-30T13:52:10.605Z,-4.4
2023-01-30T13:54:13.160Z,-4.5
2023-01-30T13:56:32.930Z,-4.4
2023-01-30T13:58:15.026Z,-4.5
2023-01-30T14:00:21.603Z,-4.5
2023-01-30T14:02:17.805Z,-4.5
2023-01-30T14:04:21.562Z,-4.5
2023-01-30T14:06:09.623Z,-4.6
2023-01-30T14:08:12.248Z,-4.6
2023-01-30T14:10:07.103Z,-4.6
2023-01-30T14:12:03.830Z,-4.6
2023-01-30T14:14:05.917Z,-4.6
2023-01-30T14:16:04.947Z,-4.6
2023-01-30T14:18:07.469Z,-4.6
2023-01-30T14:20:13.692Z,-4.6
2023-01-30T14:22:14.592Z,-4.7
2023-01-30T14:24:04.853Z,-4.7
2023-01-30T14:26:03.667Z,-4.7
2023-01-30T14:28:22.014Z,-4.8
2023-01-30T14:30:12.377Z,-4.8
2023-01-30T14:32:04.220Z,-4.8
2023-01-30T14:34:02.801Z,-4.9
2023-01-30T14:36:21.846Z,-4.9
2023-01-30T14:38:10.856Z,-5.0
2023-01-30T14:40:04.383Z,-5.1
2023-01-30T14:42:19.032Z,-5.1
2023-01-30T14:44:02.891Z,-5.1
2023-01-30T14:46:08.342Z,-5.1
2023-01-30T14:48:21.811Z,-5.1
2023-01-30T14:50:03.633Z,-5.1
2023-01-30T14:52:04.640Z,-5.1
2023-01-30T14:54:07.840Z,-5.1
2023-01-30T14:56:04.481Z,-5.1
2023-01-30T14:58:04.555Z,-5.1
2023-01-30T15:00:18.183Z,-5.1
2023-01-30T15:02:21.562Z,-5.1
2023-01-30T15:04:05.074Z,-5.1
2023-01-30T15:06:02.659Z,-5.1
2023-01-30T15:08:08.955Z,-5.1
2023-01-30T15:10:11.165Z,-5.0
2023-01-30T15:12:19.859Z,-5.0
2023-01-30T15:14:11.890Z,-5.0
2023-01-30T15:16:14.139Z,-4.9
2023-01-30T15:18:13.712Z,-4.9
2023-01-30T15:20:17.822Z,-4.9
2023-01-30T15:22:13.978Z,-4.9
2023-01-30T15:24:13.089Z,-4.9
2023-01-30T15:26:18.180Z,-4.9
2023-01-30T15:28:13.618Z,-4.9
2023-01-30T15:30:18.592Z,-4.9
2023-01-30T15:32:13.389Z,-4.8
2023-01-30T15:34:03.405Z,-4.8
2023-01-30T15:36:18.211Z,-4.8
2023-01-30T15:38:02.608Z,-4.8
2023-01-30T15:40:19.500Z,-4.8
2023-01-30T15:42:08.466Z,-4.8
2023-01-30T15:44:21.672Z,-4.8
2023-01-30T15:46:10.523Z,-4.8
2023-01-30T15:48:19.291Z,-4.8
2023-01-30T15:50:04.855Z,-4.7
2023-01-30T15:52:04.451Z,-4.7
2023-01-30T15:54:10.033Z,-4.7
2023-01-30T15:56:06.984Z,-4.7
2023-01-30T15:58:06.477Z,-4.7
2023-01-30T16:00:04.377Z,-4.7
2023-01-30T16:02:07.464Z,-4.7
2023-01-30T16:04:07.512Z,-4.7
2023-01-30T16:06:03.895Z,-4.7
2023-01-30T16:08:19.085Z,-4.7
2023-01-30T16:10:08.027Z,-4.7
2023-01-30T16:12:02.631Z,-4.7
2023-01-30T16:14:02.905Z,-4.7
2023-01-30T16:16:06.908Z,-4.7
2023-01-30T16:18:10.358Z,-4.7
2023-01-30T16:20:03.787Z,-4.7
2023-01-30T16:22:06.082Z,-4.7
2023-01-30T16:24:05.536Z,-4.7
2023-01-30T16:26:04.952Z,-4.7
2023-01-30T16:28:03.664Z,-4.7
2023-01-30T16:30:08.239Z,-4.6
2023-01-30T16:32:13.349Z,-4.6
2023-01-30T16:34:02.861Z,-4.6
2023-01-30T16:36:03.514Z,-4.6
2023-01-30T16:38:03.713Z,-4.5
2023-01-30T16:40:14.241Z,-4.4
2023-01-30T16:42:13.815Z,-4.4
2023-01-30T16:44:20.382Z,-4.4
2023-01-30T16:46:21.731Z,-4.3
2023-01-30T16:48:22.429Z,-4.3
2023-01-30T16:50:03.259Z,-4.3
2023-01-30T16:52:05.818Z,-4.3
2023-01-30T16:54:05.063Z,-4.3
2023-01-30T16:56:07.254Z,-4.2
2023-01-30T16:58:04.157Z,-4.2
2023-01-30T17:00:07.649Z,-4.2
2023-01-30T17:02:05.574Z,-4.2
2023-01-30T17:04:06.133Z,-4.1
2023-01-30T17:06:12.071Z,-4.1
2023-01-30T17:08:03.042Z,-4.0
2023-01-30T17:10:02.680Z,-3.9
2023-01-30T17:12:21.783Z,-3.9
2023-01-30T17:14:18.630Z,-3.8
2023-01-30T17:16:21.615Z,-3.8
2023-01-30T17:18:02.896Z,-3.8
2023-01-30T17:20:02.707Z,-3.7
2023-01-30T17:22:04.860Z,-3.7
2023-01-30T17:24:04.685Z,-3.7
2023-01-30T17:26:02.865Z,-3.6
2023-01-30T17:28:04.749Z,-3.4
2023-01-30T17:30:03.152Z,-3.4
2023-01-30T17:32:16.981Z,-3.3
2023-01-30T17:34:02.575Z,-3.2
2023-01-30T17:36:06.616Z,-3.1
2023-01-30T17:38:06.020Z,-2.9
2023-01-30T17:40:02.813Z,-2.8
2023-01-30T17:42:02.771Z,-2.7
2023-01-30T17:44:02.579Z,-2.5
2023-01-30T17:46:02.832Z,-2.2
2023-01-30T17:48:03.341Z,-2.0
2023-01-30T17:50:02.838Z,-1.9
2023-01-30T17:52:03.725Z,-1.9
2023-01-30T17:54:02.607Z,-2.0
2023-01-30T17:56:03.143Z,-2.1
2023-01-30T17:58:02.884Z,-1.9
2023-01-30T18:00:03.021Z,-1.8
2023-01-30T18:02:02.843Z,-1.8
2023-01-30T18:04:02.818Z,-1.7
2023-01-30T18:06:03.236Z,-1.7
2023-01-30T18:08:03.215Z,-1.6
2023-01-30T18:10:03.359Z,-1.4
2023-01-30T18:12:03.459Z,-1.3
2023-01-30T18:14:02.646Z,-1.4
2023-01-30T18:16:03.504Z,-1.4
2023-01-30T18:18:02.607Z,-1.3
2023-01-30T18:20:03.347Z,-1.1
2023-01-30T18:22:02.618Z,-0.8
2023-01-30T18:24:02.903Z,-0.7
2023-01-30T18:26:03.387Z,-0.4
2023-01-30T18:28:02.933Z,-0.3
2023-01-30T18:30:03.354Z,-0.2
2023-01-30T18:32:05.381Z,-0.2
2023-01-30T18:34:02.651Z,-0.1
2023-01-30T18:36:04.828Z,0.2
2023-01-30T18:38:03.088Z,0.2
2023-01-30T18:40:03.187Z,0.2
2023-01-30T18:42:02.748Z,0.3
2023-01-30T18:44:05.901Z,0.4
2023-01-30T18:46:03.975Z,0.4
2023-01-30T18:48:03.403Z,0.6
2023-01-30T18:50:02.711Z,0.6
2023-01-30T18:52:02.821Z,0.5
2023-01-30T18:54:03.322Z,0.4
2023-01-30T18:56:02.656Z,0.4
2023-01-30T18:58:03.156Z,0.3
2023-01-30T19:00:03.106Z,0.2
2023-01-30T19:02:02.587Z,0.2
2023-01-30T19:04:05.560Z,0.2
2023-01-30T19:06:03.513Z,0.3
2023-01-30T19:08:03.192Z,0.3
2023-01-30T19:10:02.735Z,0.3
2023-01-30T19:12:12.690Z,0.3
2023-01-30T19:14:03.643Z,0.3
2023-01-30T19:16:04.652Z,0.3
2023-01-30T19:18:03.153Z,0.3
2023-01-30T19:20:08.221Z,0.3
2023-01-30T19:22:03.673Z,0.3
2023-01-30T19:24:03.728Z,0.3
2023-01-30T19:26:03.578Z,0.3
2023-01-30T19:28:04.407Z,0.3
2023-01-30T19:30:03.784Z,0.3
2023-01-30T19:32:03.416Z,0.3
2023-01-30T19:34:05.736Z,0.3
2023-01-30T19:36:09.804Z,0.3
2023-01-30T19:38:03.011Z,0.3
2023-01-30T19:40:08.204Z,0.4
2023-01-30T19:42:02.836Z,0.4
2023-01-30T19:44:05.180Z,0.4
2023-01-30T19:46:02.604Z,0.4
2023-01-30T19:48:02.586Z,0.4
2023-01-30T19:50:02.602Z,0.5
2023-01-30T19:52:03.095Z,0.5
2023-01-30T19:54:05.725Z,0.6
2023-01-30T19:56:04.940Z,0.7
2023-01-30T19:58:03.010Z,0.8
2023-01-30T20:00:04.747Z,0.9
2023-01-30T20:02:02.840Z,0.9
2023-01-30T20:04:04.867Z,1.1
2023-01-30T20:06:13.245Z,1.1
2023-01-30T20:08:03.521Z,1.2
2023-01-30T20:10:04.881Z,1.3
2023-01-30T20:12:02.607Z,1.2
2023-01-30T20:14:04.956Z,1.2
2023-01-30T20:16:06.387Z,1.2
2023-01-30T20:18:02.763Z,1.4
2023-01-30T20:20:02.791Z,1.4
2023-01-30T20:22:07.688Z,1.4
2023-01-30T20:24:03.671Z,1.4
2023-01-30T20:26:05.454Z,1.5
2023-01-30T20:28:03.085Z,1.7
2023-01-30T20:30:03.337Z,1.7
2023-01-30T20:32:02.727Z,1.8
2023-01-30T20:34:05.379Z,1.8
2023-01-30T20:36:04.289Z,1.8
2023-01-30T20:38:02.678Z,1.8
2023-01-30T20:40:03.877Z,1.8
2023-01-30T20:42:02.757Z,1.8
2023-01-30T20:44:04.945Z,1.9
2023-01-30T20:46:04.942Z,1.9
2023-01-30T20:48:02.580Z,1.9
2023-01-30T20:50:02.712Z,1.9
2023-01-30T20:52:03.148Z,1.9
2023-01-30T20:54:05.401Z,1.9
2023-01-30T20:56:03.667Z,1.9
2023-01-30T20:58:03.516Z,1.8
2023-01-30T21:00:04.678Z,1.8
2023-01-30T21:02:03.090Z,1.8
2023-01-30T21:04:07.163Z,1.8
2023-01-30T21:06:03.574Z,1.8
2023-01-30T21:08:02.613Z,1.8
2023-01-30T21:10:02.712Z,1.8
2023-01-30T21:12:03.132Z,1.7
2023-01-30T21:14:03.498Z,1.7
2023-01-30T21:16:05.959Z,1.7
2023-01-30T21:18:02.572Z,1.7
2023-01-30T21:20:02.866Z,1.7
2023-01-30T21:22:07.073Z,1.7
2023-01-30T21:24:06.255Z,1.8
2023-01-30T21:26:04.730Z,1.8
2023-01-30T21:28:03.009Z,1.8
2023-01-30T21:30:02.970Z,1.8
2023-01-30T21:32:02.685Z,1.8
2023-01-30T21:34:03.409Z,1.8
2023-01-30T21:36:03.488Z,1.8
2023-01-30T21:38:12.097Z,1.8
2023-01-30T21:40:13.076Z,1.8
2023-01-30T21:42:11.987Z,1.9
2023-01-30T21:44:02.814Z,1.9
2023-01-30T21:46:03.679Z,2.0
2023-01-30T21:48:03.096Z,2.0
2023-01-30T21:50:02.703Z,2.1
2023-01-30T21:52:03.023Z,2.1
2023-01-30T21:54:04.162Z,2.2
2023-01-30T21:56:03.348Z,2.2
2023-01-30T21:58:02.558Z,2.2
2023-01-30T22:00:02.635Z,2.3
2023-01-30T22:02:02.778Z,2.3
2023-01-30T22:04:05.175Z,2.4
2023-01-30T22:06:03.851Z,2.5
2023-01-30T22:08:03.463Z,2.5
2023-01-30T22:10:02.684Z,2.6
2023-01-30T22:12:02.601Z,2.6
2023-01-30T22:14:03.524Z,2.7
2023-01-30T22:16:03.540Z,2.7
2023-01-30T22:18:03.547Z,2.7
2023-01-30T22:20:02.855Z,2.7
2023-01-30T22:22:03.819Z,2.7
2023-01-30T22:24:04.943Z,2.7
2023-01-30T22:26:03.601Z,2.7
2023-01-30T22:28:02.948Z,2.7
2023-01-30T22:30:03.373Z,2.6
2023-01-30T22:32:02.698Z,2.6
2023-01-30T22:34:04.567Z,2.6
2023-01-30T22:36:05.346Z,2.6
2023-01-30T22:38:02.619Z,2.6
2023-01-30T22:40:03.519Z,2.5
2023-01-30T22:42:02.573Z,2.5
2023-01-30T22:44:04.610Z,2.5
2023-01-30T22:46:05.283Z,2.4
2023-01-30T22:48:02.698Z,2.5
2023-01-30T22:50:04.055Z,2.4
2023-01-30T22:52:03.109Z,2.4
2023-01-30T22:54:05.404Z,2.3
2023-01-30T22:56:04.899Z,2.3
2023-01-30T22:58:02.573Z,2.3
2023-01-30T23:00:02.831Z,2.2
2023-01-30T23:02:03.710Z,2.2
2023-01-30T23:04:05.208Z,2.1
2023-01-30T23:06:05.321Z,2.1
2023-01-30T23:08:03.255Z,2.1
2023-01-30T23:10:02.661Z,2.1
2023-01-30T23:12:12.060Z,2.1
2023-01-30T23:14:08.689Z,2.1
2023-01-30T23:16:05.381Z,2.1
2023-01-30T23:18:12.082Z,2.1
2023-01-30T23:20:03.246Z,2.1
2023-01-30T23:22:03.354Z,2.1
2023-01-30T23:24:07.139Z,2.1
2023-01-30T23:26:03.726Z,2.1
2023-01-30T23:28:03.091Z,2.1
2023-01-30T23:30:03.571Z,2.1
2023-01-30T23:32:03.082Z,2.1
2023-01-30T23:34:05.804Z,2.0
2023-01-30T23:36:04.883Z,2.0
2023-01-30T23:38:12.040Z,1.9
2023-01-30T23:40:03.409Z,1.9
2023-01-30T23:42:02.852Z,1.9
2023-01-30T23:44:03.950Z,1.9
2023-01-30T23:46:14.381Z,1.9
2023-01-30T23:48:02.573Z,1.8
2023-01-30T23:50:02.603Z,1.8
2023-01-30T23:52:02.757Z,1.8
2023-01-30T23:54:03.786Z,1.8
2023-01-30T23:56:03.505Z,1.7
2023-01-30T23:58:02.813Z,1.7
